sensor_id;sensor_type;location;lat;lon;timestamp;P1;durP1;ratioP1;P2;durP2;ratioP2
32323;SDS011;25666;44.350;9.222;2022-08-19T05:41:27;9.05;;;2.70;;
32323;SDS011;25666;44.350;9.222;2022-08-19T05:43:55;11.02;;;3.08;;
32323;SDS011;25666;44.350;9.222;2022-08-19T05:47:00;5.18;;;2.45;;
32323;SDS011;25666;44.350;9.222;2022-08-19T05:49:27;4.13;;;3.10;;
32323;SDS011;25666;44.350;9.222;2022-08-19T05:51:54;6.38;;;2.65;;
32323;SDS011;25666;44.350;9.222;2022-08-19T05:54:20;12.85;;;3.65;;
32323;SDS011;25666;44.350;9.222;2022-08-19T05:56:48;9.32;;;3.13;;
32323;SDS011;25666;44.350;9.222;2022-08-19T05:59:15;10.23;;;3.78;;
32323;SDS011;25666;44.350;9.222;2022-08-19T06:01:43;10.07;;;3.35;;
32323;SDS011;25666;44.350;9.222;2022-08-19T06:04:10;8.48;;;3.08;;
32323;SDS011;25666;44.350;9.222;2022-08-19T06:06:38;10.77;;;2.92;;
32323;SDS011;25666;44.350;9.222;2022-08-19T06:09:04;14.35;;;3.53;;
32323;SDS011;25666;44.350;9.222;2022-08-19T06:11:32;6.93;;;2.92;;
32323;SDS011;25666;44.350;9.222;2022-08-19T06:14:06;9.50;;;3.38;;
32323;SDS011;25666;44.350;9.222;2022-08-19T06:16:38;11.93;;;3.83;;
32323;SDS011;25666;44.350;9.222;2022-08-19T06:19:05;11.70;;;2.97;;
32323;SDS011;25666;44.350;9.222;2022-08-19T06:21:33;5.22;;;3.30;;
32323;SDS011;25666;44.350;9.222;2022-08-19T06:24:02;11.23;;;2.70;;
32323;SDS011;25666;44.350;9.222;2022-08-19T06:26:30;5.40;;;2.90;;
32323;SDS011;25666;44.350;9.222;2022-08-19T06:28:57;7.72;;;3.25;;
32323;SDS011;25666;44.350;9.222;2022-08-19T06:31:25;12.65;;;3.03;;
32323;SDS011;25666;44.350;9.222;2022-08-19T06:33:52;15.55;;;3.28;;
32323;SDS011;25666;44.350;9.222;2022-08-19T06:38:52;8.90;;;3.40;;
32323;SDS011;25666;44.350;9.222;2022-08-19T06:41:18;6.82;;;2.80;;
32323;SDS011;25666;44.350;9.222;2022-08-19T06:43:44;6.00;;;3.50;;
32323;SDS011;25666;44.350;9.222;2022-08-19T06:46:10;12.73;;;4.30;;
32323;SDS011;25666;44.350;9.222;2022-08-19T06:48:37;16.20;;;3.20;;
32323;SDS011;25666;44.350;9.222;2022-08-19T06:51:03;15.32;;;3.63;;
32323;SDS011;25666;44.350;9.222;2022-08-19T06:53:31;7.05;;;3.10;;
32323;SDS011;25666;44.350;9.222;2022-08-19T06:55:57;8.77;;;3.22;;
32323;SDS011;25666;44.350;9.222;2022-08-19T06:58:27;7.45;;;3.40;;
32323;SDS011;25666;44.350;9.222;2022-08-19T07:00:59;10.05;;;3.17;;
32323;SDS011;25666;44.350;9.222;2022-08-19T07:03:28;8.27;;;2.70;;
32323;SDS011;25666;44.350;9.222;2022-08-19T07:06:18;11.60;;;3.00;;
32323;SDS011;25666;44.350;9.222;2022-08-19T07:08:45;10.57;;;3.22;;
32323;SDS011;25666;44.350;9.222;2022-08-19T07:11:13;11.90;;;3.10;;
32323;SDS011;25666;44.350;9.222;2022-08-19T07:13:43;15.50;;;3.97;;
32323;SDS011;25666;44.350;9.222;2022-08-19T07:16:10;5.07;;;2.17;;
32323;SDS011;25666;44.350;9.222;2022-08-19T07:18:39;6.53;;;2.53;;
32323;SDS011;25666;44.350;9.222;2022-08-19T07:21:08;7.40;;;2.90;;
32323;SDS011;25666;44.350;9.222;2022-08-19T07:23:35;9.18;;;3.25;;
32323;SDS011;25666;44.350;9.222;2022-08-19T07:26:05;10.93;;;3.10;;
32323;SDS011;25666;44.350;9.222;2022-08-19T07:28:32;8.25;;;2.80;;
32323;SDS011;25666;44.350;9.222;2022-08-19T07:30:58;4.07;;;2.92;;
32323;SDS011;25666;44.350;9.222;2022-08-19T07:33:23;8.02;;;3.30;;
32323;SDS011;25666;44.350;9.222;2022-08-19T07:35:49;12.45;;;2.95;;
32323;SDS011;25666;44.350;9.222;2022-08-19T07:38:15;9.88;;;2.80;;
32323;SDS011;25666;44.350;9.222;2022-08-19T07:40:41;4.93;;;3.13;;
32323;SDS011;25666;44.350;9.222;2022-08-19T07:43:08;12.63;;;3.10;;
32323;SDS011;25666;44.350;9.222;2022-08-19T07:45:34;10.38;;;3.78;;
32323;SDS011;25666;44.350;9.222;2022-08-19T07:48:00;19.38;;;3.53;;
32323;SDS011;25666;44.350;9.222;2022-08-19T07:50:26;4.93;;;2.80;;
32323;SDS011;25666;44.350;9.222;2022-08-19T07:52:51;10.38;;;2.80;;
32323;SDS011;25666;44.350;9.222;2022-08-19T07:55:19;4.25;;;2.60;;
32323;SDS011;25666;44.350;9.222;2022-08-19T07:57:48;12.32;;;2.75;;
32323;SDS011;25666;44.350;9.222;2022-08-19T08:00:14;12.88;;;3.45;;
32323;SDS011;25666;44.350;9.222;2022-08-19T08:02:40;7.20;;;2.63;;
32323;SDS011;25666;44.350;9.222;2022-08-19T08:05:08;11.93;;;4.65;;
32323;SDS011;25666;44.350;9.222;2022-08-19T08:07:52;8.80;;;2.45;;
32323;SDS011;25666;44.350;9.222;2022-08-19T08:10:37;8.63;;;3.17;;
32323;SDS011;25666;44.350;9.222;2022-08-19T08:13:03;11.90;;;3.72;;
32323;SDS011;25666;44.350;9.222;2022-08-19T08:15:30;14.63;;;4.45;;
32323;SDS011;25666;44.350;9.222;2022-08-19T08:17:56;11.52;;;4.55;;
32323;SDS011;25666;44.350;9.222;2022-08-19T08:20:23;9.98;;;3.63;;
32323;SDS011;25666;44.350;9.222;2022-08-19T08:22:49;19.58;;;3.83;;
32323;SDS011;25666;44.350;9.222;2022-08-19T08:25:34;5.85;;;2.28;;
32323;SDS011;25666;44.350;9.222;2022-08-19T08:28:00;5.20;;;2.53;;
32323;SDS011;25666;44.350;9.222;2022-08-19T08:30:27;5.50;;;2.60;;
32323;SDS011;25666;44.350;9.222;2022-08-19T08:32:54;6.75;;;3.03;;
32323;SDS011;25666;44.350;9.222;2022-08-19T08:35:21;13.27;;;5.03;;
32323;SDS011;25666;44.350;9.222;2022-08-19T08:37:49;5.60;;;3.00;;
32323;SDS011;25666;44.350;9.222;2022-08-19T08:45:54;13.30;;;2.75;;
32323;SDS011;25666;44.350;9.222;2022-08-19T08:48:52;6.45;;;2.50;;
32323;SDS011;25666;44.350;9.222;2022-08-19T08:51:27;5.00;;;2.55;;
32323;SDS011;25666;44.350;9.222;2022-08-19T08:53:58;7.25;;;2.85;;
32323;SDS011;25666;44.350;9.222;2022-08-19T08:56:24;8.60;;;2.95;;
32323;SDS011;25666;44.350;9.222;2022-08-19T09:01:35;5.43;;;2.20;;
32323;SDS011;25666;44.350;9.222;2022-08-19T09:04:02;3.28;;;1.80;;
32323;SDS011;25666;44.350;9.222;2022-08-19T09:17:11;8.57;;;3.83;;
32323;SDS011;25666;44.350;9.222;2022-08-19T09:19:51;12.65;;;6.35;;
32323;SDS011;25666;44.350;9.222;2022-08-19T09:22:19;10.07;;;5.70;;
32323;SDS011;25666;44.350;9.222;2022-08-19T09:24:48;16.17;;;6.22;;
32323;SDS011;25666;44.350;9.222;2022-08-19T09:27:17;11.55;;;5.88;;
32323;SDS011;25666;44.350;9.222;2022-08-19T09:29:44;12.55;;;5.97;;
32323;SDS011;25666;44.350;9.222;2022-08-19T09:32:10;14.80;;;6.15;;
32323;SDS011;25666;44.350;9.222;2022-08-19T09:34:35;13.73;;;5.57;;
32323;SDS011;25666;44.350;9.222;2022-08-19T09:37:01;13.27;;;5.90;;
32323;SDS011;25666;44.350;9.222;2022-08-19T09:39:28;14.13;;;6.25;;
32323;SDS011;25666;44.350;9.222;2022-08-19T09:41:56;18.02;;;6.18;;
32323;SDS011;25666;44.350;9.222;2022-08-19T09:44:21;19.10;;;7.22;;
32323;SDS011;25666;44.350;9.222;2022-08-19T09:46:48;20.08;;;5.57;;
32323;SDS011;25666;44.350;9.222;2022-08-19T09:49:14;16.70;;;7.68;;
32323;SDS011;25666;44.350;9.222;2022-08-19T09:51:42;11.00;;;5.57;;
32323;SDS011;25666;44.350;9.222;2022-08-19T09:54:08;11.93;;;5.50;;
32323;SDS011;25666;44.350;9.222;2022-08-19T09:56:33;5.75;;;3.55;;
32323;SDS011;25666;44.350;9.222;2022-08-19T09:58:59;3.40;;;2.40;;
32323;SDS011;25666;44.350;9.222;2022-08-19T10:01:27;5.97;;;2.85;;
32323;SDS011;25666;44.350;9.222;2022-08-19T10:03:55;7.18;;;3.70;;
32323;SDS011;25666;44.350;9.222;2022-08-19T10:06:23;11.98;;;3.95;;
32323;SDS011;25666;44.350;9.222;2022-08-19T10:08:54;4.82;;;2.53;;
32323;SDS011;25666;44.350;9.222;2022-08-19T10:11:20;6.53;;;2.70;;
32323;SDS011;25666;44.350;9.222;2022-08-19T10:13:46;2.65;;;2.42;;
32323;SDS011;25666;44.350;9.222;2022-08-19T10:16:14;3.70;;;2.35;;
32323;SDS011;25666;44.350;9.222;2022-08-19T10:18:44;5.38;;;2.88;;
32323;SDS011;25666;44.350;9.222;2022-08-19T10:21:12;6.35;;;2.10;;
32323;SDS011;25666;44.350;9.222;2022-08-19T10:23:41;5.00;;;2.72;;
32323;SDS011;25666;44.350;9.222;2022-08-19T10:26:12;5.57;;;2.33;;
32323;SDS011;25666;44.350;9.222;2022-08-19T10:28:39;1.85;;;1.65;;
32323;SDS011;25666;44.350;9.222;2022-08-19T10:31:09;6.35;;;2.53;;
32323;SDS011;25666;44.350;9.222;2022-08-19T10:33:37;4.30;;;2.08;;
32323;SDS011;25666;44.350;9.222;2022-08-19T10:36:04;4.65;;;2.40;;
32323;SDS011;25666;44.350;9.222;2022-08-19T10:38:32;2.20;;;2.00;;
32323;SDS011;25666;44.350;9.222;2022-08-19T10:41:06;2.38;;;2.05;;
32323;SDS011;25666;44.350;9.222;2022-08-19T10:43:42;3.83;;;2.90;;
32323;SDS011;25666;44.350;9.222;2022-08-19T10:46:11;6.07;;;3.00;;
32323;SDS011;25666;44.350;9.222;2022-08-19T10:48:38;5.22;;;2.33;;
32323;SDS011;25666;44.350;9.222;2022-08-19T10:51:04;4.30;;;2.53;;
32323;SDS011;25666;44.350;9.222;2022-08-19T10:53:49;4.10;;;3.15;;
32323;SDS011;25666;44.350;9.222;2022-08-19T10:56:16;3.78;;;2.20;;
32323;SDS011;25666;44.350;9.222;2022-08-19T10:59:00;2.65;;;2.08;;
32323;SDS011;25666;44.350;9.222;2022-08-19T11:01:28;3.97;;;1.90;;
32323;SDS011;25666;44.350;9.222;2022-08-19T11:03:56;4.72;;;1.80;;
32323;SDS011;25666;44.350;9.222;2022-08-19T11:06:22;1.98;;;1.70;;
32323;SDS011;25666;44.350;9.222;2022-08-19T11:08:50;13.18;;;2.13;;
32323;SDS011;25666;44.350;9.222;2022-08-19T11:11:17;3.53;;;2.05;;
32323;SDS011;25666;44.350;9.222;2022-08-19T11:13:42;3.60;;;2.42;;
32323;SDS011;25666;44.350;9.222;2022-08-19T11:16:11;9.13;;;3.80;;
32323;SDS011;25666;44.350;9.222;2022-08-19T11:18:45;9.95;;;2.88;;
32323;SDS011;25666;44.350;9.222;2022-08-19T11:23:42;4.30;;;2.60;;
32323;SDS011;25666;44.350;9.222;2022-08-19T11:26:08;4.80;;;2.92;;
32323;SDS011;25666;44.350;9.222;2022-08-19T11:28:35;3.08;;;2.17;;
32323;SDS011;25666;44.350;9.222;2022-08-19T11:31:00;4.70;;;2.15;;
32323;SDS011;25666;44.350;9.222;2022-08-19T11:33:28;4.13;;;2.00;;
32323;SDS011;25666;44.350;9.222;2022-08-19T11:35:56;2.33;;;2.13;;
32323;SDS011;25666;44.350;9.222;2022-08-19T11:38:24;8.48;;;2.80;;
32323;SDS011;25666;44.350;9.222;2022-08-19T11:40:57;3.88;;;2.20;;
32323;SDS011;25666;44.350;9.222;2022-08-19T11:43:24;3.38;;;2.28;;
32323;SDS011;25666;44.350;9.222;2022-08-19T11:45:51;5.53;;;2.20;;
32323;SDS011;25666;44.350;9.222;2022-08-19T11:48:17;4.32;;;2.03;;
32323;SDS011;25666;44.350;9.222;2022-08-19T11:50:50;7.22;;;2.60;;
32323;SDS011;25666;44.350;9.222;2022-08-19T11:53:18;3.58;;;2.03;;
32323;SDS011;25666;44.350;9.222;2022-08-19T11:55:45;3.88;;;1.70;;
32323;SDS011;25666;44.350;9.222;2022-08-19T11:58:15;3.22;;;1.50;;
32323;SDS011;25666;44.350;9.222;2022-08-19T12:00:42;3.05;;;1.65;;
32323;SDS011;25666;44.350;9.222;2022-08-19T12:03:10;3.35;;;2.45;;
32323;SDS011;25666;44.350;9.222;2022-08-19T12:05:36;5.10;;;2.17;;
32323;SDS011;25666;44.350;9.222;2022-08-19T12:08:04;4.75;;;1.70;;
32323;SDS011;25666;44.350;9.222;2022-08-19T12:10:29;6.18;;;1.60;;
32323;SDS011;25666;44.350;9.222;2022-08-19T12:12:55;2.45;;;2.10;;
32323;SDS011;25666;44.350;9.222;2022-08-19T12:15:20;2.28;;;2.00;;
32323;SDS011;25666;44.350;9.222;2022-08-19T12:17:46;6.45;;;2.53;;
32323;SDS011;25666;44.350;9.222;2022-08-19T12:20:12;5.10;;;2.03;;
32323;SDS011;25666;44.350;9.222;2022-08-19T12:22:40;4.05;;;2.33;;
32323;SDS011;25666;44.350;9.222;2022-08-19T12:25:06;3.65;;;2.35;;
32323;SDS011;25666;44.350;9.222;2022-08-19T12:27:33;2.97;;;2.03;;
32323;SDS011;25666;44.350;9.222;2022-08-19T12:30:01;3.05;;;2.28;;
32323;SDS011;25666;44.350;9.222;2022-08-19T12:32:30;2.40;;;1.70;;
32323;SDS011;25666;44.350;9.222;2022-08-19T12:34:55;3.65;;;2.30;;
32323;SDS011;25666;44.350;9.222;2022-08-19T12:37:21;2.45;;;2.20;;
32323;SDS011;25666;44.350;9.222;2022-08-19T12:39:47;2.22;;;1.90;;
32323;SDS011;25666;44.350;9.222;2022-08-19T12:42:13;5.85;;;2.30;;
32323;SDS011;25666;44.350;9.222;2022-08-19T12:44:39;4.35;;;2.10;;
32323;SDS011;25666;44.350;9.222;2022-08-19T12:47:06;2.20;;;2.00;;
32323;SDS011;25666;44.350;9.222;2022-08-19T12:49:33;3.20;;;2.38;;
32323;SDS011;25666;44.350;9.222;2022-08-19T12:51:59;5.00;;;2.47;;
32323;SDS011;25666;44.350;9.222;2022-08-19T12:54:26;3.05;;;2.40;;
32323;SDS011;25666;44.350;9.222;2022-08-19T12:56:52;3.10;;;2.30;;
32323;SDS011;25666;44.350;9.222;2022-08-19T12:59:18;3.55;;;2.10;;
32323;SDS011;25666;44.350;9.222;2022-08-19T13:01:44;3.17;;;1.80;;
32323;SDS011;25666;44.350;9.222;2022-08-19T13:04:10;5.50;;;2.20;;
32323;SDS011;25666;44.350;9.222;2022-08-19T13:06:35;3.20;;;2.10;;
32323;SDS011;25666;44.350;9.222;2022-08-19T13:09:02;3.47;;;2.38;;
32323;SDS011;25666;44.350;9.222;2022-08-19T13:11:28;2.15;;;2.05;;
32323;SDS011;25666;44.350;9.222;2022-08-19T13:13:57;4.03;;;2.17;;
32323;SDS011;25666;44.350;9.222;2022-08-19T13:16:23;5.13;;;2.50;;
32323;SDS011;25666;44.350;9.222;2022-08-19T13:18:49;6.13;;;2.17;;
32323;SDS011;25666;44.350;9.222;2022-08-19T13:21:17;5.10;;;2.17;;
32323;SDS011;25666;44.350;9.222;2022-08-19T13:23:45;2.42;;;2.20;;
32323;SDS011;25666;44.350;9.222;2022-08-19T13:26:11;5.35;;;2.13;;
32323;SDS011;25666;44.350;9.222;2022-08-19T13:28:37;2.05;;;1.77;;
32323;SDS011;25666;44.350;9.222;2022-08-19T13:31:23;4.85;;;1.75;;
32323;SDS011;25666;44.350;9.222;2022-08-19T13:34:08;8.10;;;2.20;;
32323;SDS011;25666;44.350;9.222;2022-08-19T13:36:35;4.82;;;2.22;;
32323;SDS011;25666;44.350;9.222;2022-08-19T13:39:03;2.25;;;1.92;;
32323;SDS011;25666;44.350;9.222;2022-08-19T13:41:29;2.20;;;2.00;;
32323;SDS011;25666;44.350;9.222;2022-08-19T13:43:56;1.95;;;1.77;;
32323;SDS011;25666;44.350;9.222;2022-08-19T13:46:21;7.45;;;2.95;;
32323;SDS011;25666;44.350;9.222;2022-08-19T13:48:47;3.42;;;2.05;;
32323;SDS011;25666;44.350;9.222;2022-08-19T13:51:15;2.08;;;1.92;;
32323;SDS011;25666;44.350;9.222;2022-08-19T13:53:42;1.90;;;1.73;;
32323;SDS011;25666;44.350;9.222;2022-08-19T13:56:10;4.60;;;2.30;;
32323;SDS011;25666;44.350;9.222;2022-08-19T13:58:37;2.47;;;1.98;;
32323;SDS011;25666;44.350;9.222;2022-08-19T14:01:03;3.28;;;1.60;;
32323;SDS011;25666;44.350;9.222;2022-08-19T14:03:30;2.83;;;1.90;;
32323;SDS011;25666;44.350;9.222;2022-08-19T14:05:57;2.53;;;1.95;;
32323;SDS011;25666;44.350;9.222;2022-08-19T14:08:23;3.88;;;1.80;;
32323;SDS011;25666;44.350;9.222;2022-08-19T14:10:49;4.05;;;1.88;;
32323;SDS011;25666;44.350;9.222;2022-08-19T14:13:16;1.85;;;1.70;;
32323;SDS011;25666;44.350;9.222;2022-08-19T14:15:44;3.88;;;1.98;;
32323;SDS011;25666;44.350;9.222;2022-08-19T14:18:10;3.30;;;2.15;;
32323;SDS011;25666;44.350;9.222;2022-08-19T14:20:36;1.80;;;1.60;;
32323;SDS011;25666;44.350;9.222;2022-08-19T14:23:02;3.08;;;1.77;;
32323;SDS011;25666;44.350;9.222;2022-08-19T14:25:30;1.80;;;1.70;;
32323;SDS011;25666;44.350;9.222;2022-08-19T14:27:57;5.63;;;1.90;;
32323;SDS011;25666;44.350;9.222;2022-08-19T14:30:27;7.68;;;2.40;;
32323;SDS011;25666;44.350;9.222;2022-08-19T14:32:56;4.15;;;2.13;;
32323;SDS011;25666;44.350;9.222;2022-08-19T14:35:26;1.95;;;1.80;;
32323;SDS011;25666;44.350;9.222;2022-08-19T14:37:53;2.10;;;1.77;;
32323;SDS011;25666;44.350;9.222;2022-08-19T14:40:20;5.97;;;2.00;;
32323;SDS011;25666;44.350;9.222;2022-08-19T14:42:47;3.50;;;1.98;;
32323;SDS011;25666;44.350;9.222;2022-08-19T14:45:13;4.20;;;2.50;;
32323;SDS011;25666;44.350;9.222;2022-08-19T14:47:39;1.88;;;1.70;;
32323;SDS011;25666;44.350;9.222;2022-08-19T14:50:08;7.03;;;2.08;;
32323;SDS011;25666;44.350;9.222;2022-08-19T14:52:35;4.95;;;2.47;;
32323;SDS011;25666;44.350;9.222;2022-08-19T14:55:01;7.05;;;2.10;;
32323;SDS011;25666;44.350;9.222;2022-08-19T14:57:28;2.97;;;2.10;;
32323;SDS011;25666;44.350;9.222;2022-08-19T14:59:54;4.03;;;2.15;;
32323;SDS011;25666;44.350;9.222;2022-08-19T15:02:19;5.38;;;2.05;;
32323;SDS011;25666;44.350;9.222;2022-08-19T15:04:45;6.57;;;2.63;;
32323;SDS011;25666;44.350;9.222;2022-08-19T15:07:11;7.30;;;2.25;;
32323;SDS011;25666;44.350;9.222;2022-08-19T15:09:36;2.83;;;2.00;;
32323;SDS011;25666;44.350;9.222;2022-08-19T15:12:02;7.15;;;2.42;;
32323;SDS011;25666;44.350;9.222;2022-08-19T15:14:29;4.15;;;2.20;;
32323;SDS011;25666;44.350;9.222;2022-08-19T15:17:00;3.22;;;1.58;;
32323;SDS011;25666;44.350;9.222;2022-08-19T15:19:28;3.83;;;1.80;;
32323;SDS011;25666;44.350;9.222;2022-08-19T15:21:54;5.53;;;2.10;;
32323;SDS011;25666;44.350;9.222;2022-08-19T15:24:20;4.93;;;1.85;;
32323;SDS011;25666;44.350;9.222;2022-08-19T15:26:47;3.30;;;1.80;;
32323;SDS011;25666;44.350;9.222;2022-08-19T15:29:13;3.35;;;2.42;;
32323;SDS011;25666;44.350;9.222;2022-08-19T15:31:40;6.03;;;2.70;;
32323;SDS011;25666;44.350;9.222;2022-08-19T15:34:06;7.57;;;2.35;;
32323;SDS011;25666;44.350;9.222;2022-08-19T15:36:32;2.85;;;2.08;;
32323;SDS011;25666;44.350;9.222;2022-08-19T15:38:59;33.72;;;3.08;;
32323;SDS011;25666;44.350;9.222;2022-08-19T15:41:25;2.45;;;2.10;;
32323;SDS011;25666;44.350;9.222;2022-08-19T15:43:55;8.02;;;2.50;;
32323;SDS011;25666;44.350;9.222;2022-08-19T15:46:24;2.92;;;1.90;;
32323;SDS011;25666;44.350;9.222;2022-08-19T15:48:52;6.90;;;2.10;;
32323;SDS011;25666;44.350;9.222;2022-08-19T15:51:18;4.38;;;2.55;;
32323;SDS011;25666;44.350;9.222;2022-08-19T15:53:44;8.88;;;3.13;;
32323;SDS011;25666;44.350;9.222;2022-08-19T15:56:10;3.72;;;2.35;;
32323;SDS011;25666;44.350;9.222;2022-08-19T15:58:36;5.20;;;2.60;;
32323;SDS011;25666;44.350;9.222;2022-08-19T16:01:21;7.22;;;2.20;;
32323;SDS011;25666;44.350;9.222;2022-08-19T16:03:57;3.33;;;2.05;;
32323;SDS011;25666;44.350;9.222;2022-08-19T16:06:47;4.55;;;2.83;;
32323;SDS011;25666;44.350;9.222;2022-08-19T16:09:15;3.35;;;2.00;;
32323;SDS011;25666;44.350;9.222;2022-08-19T16:11:42;5.07;;;2.58;;
32323;SDS011;25666;44.350;9.222;2022-08-19T16:14:09;6.10;;;2.80;;
32323;SDS011;25666;44.350;9.222;2022-08-19T16:16:35;6.43;;;2.30;;
32323;SDS011;25666;44.350;9.222;2022-08-19T16:19:04;2.70;;;2.15;;
32323;SDS011;25666;44.350;9.222;2022-08-19T16:21:32;2.95;;;2.65;;
32323;SDS011;25666;44.350;9.222;2022-08-19T16:24:00;5.30;;;2.42;;
32323;SDS011;25666;44.350;9.222;2022-08-19T16:26:27;6.55;;;2.50;;
32323;SDS011;25666;44.350;9.222;2022-08-19T16:28:55;5.65;;;2.30;;
32323;SDS011;25666;44.350;9.222;2022-08-19T16:31:21;4.97;;;2.92;;
32323;SDS011;25666;44.350;9.222;2022-08-19T16:33:47;2.72;;;2.05;;
32323;SDS011;25666;44.350;9.222;2022-08-19T16:36:13;6.07;;;2.20;;
32323;SDS011;25666;44.350;9.222;2022-08-19T16:38:38;4.97;;;2.58;;
32323;SDS011;25666;44.350;9.222;2022-08-19T16:41:04;3.13;;;2.58;;
32323;SDS011;25666;44.350;9.222;2022-08-19T16:43:30;4.03;;;2.35;;
32323;SDS011;25666;44.350;9.222;2022-08-19T16:45:56;4.53;;;2.20;;
32323;SDS011;25666;44.350;9.222;2022-08-19T16:48:23;8.80;;;2.63;;
32323;SDS011;25666;44.350;9.222;2022-08-19T16:50:57;3.97;;;2.58;;
32323;SDS011;25666;44.350;9.222;2022-08-19T16:53:24;7.80;;;3.00;;
32323;SDS011;25666;44.350;9.222;2022-08-19T16:55:53;4.53;;;2.58;;
32323;SDS011;25666;44.350;9.222;2022-08-19T16:58:19;9.10;;;2.92;;
32323;SDS011;25666;44.350;9.222;2022-08-19T17:00:49;8.30;;;3.20;;
32323;SDS011;25666;44.350;9.222;2022-08-19T17:03:16;8.98;;;2.90;;
32323;SDS011;25666;44.350;9.222;2022-08-19T17:05:47;8.85;;;3.60;;
32323;SDS011;25666;44.350;9.222;2022-08-19T17:08:14;4.70;;;2.78;;
32323;SDS011;25666;44.350;9.222;2022-08-19T17:10:41;6.82;;;3.13;;
32323;SDS011;25666;44.350;9.222;2022-08-19T17:13:08;7.20;;;2.67;;
32323;SDS011;25666;44.350;9.222;2022-08-19T17:15:34;8.00;;;2.85;;
32323;SDS011;25666;44.350;9.222;2022-08-19T17:18:00;4.32;;;2.90;;
32323;SDS011;25666;44.350;9.222;2022-08-19T17:20:27;3.47;;;2.95;;
32323;SDS011;25666;44.350;9.222;2022-08-19T17:22:54;6.38;;;3.63;;
32323;SDS011;25666;44.350;9.222;2022-08-19T17:25:21;4.47;;;3.00;;
32323;SDS011;25666;44.350;9.222;2022-08-19T17:27:47;13.07;;;3.38;;
32323;SDS011;25666;44.350;9.222;2022-08-19T17:30:13;7.22;;;3.13;;
32323;SDS011;25666;44.350;9.222;2022-08-19T17:32:38;6.18;;;3.25;;
32323;SDS011;25666;44.350;9.222;2022-08-19T17:35:04;5.40;;;3.05;;
32323;SDS011;25666;44.350;9.222;2022-08-19T17:37:30;10.30;;;3.25;;
32323;SDS011;25666;44.350;9.222;2022-08-19T17:39:56;8.50;;;4.53;;
32323;SDS011;25666;44.350;9.222;2022-08-19T17:42:22;4.63;;;2.90;;
32323;SDS011;25666;44.350;9.222;2022-08-19T17:44:47;6.25;;;3.35;;
32323;SDS011;25666;44.350;9.222;2022-08-19T17:47:13;9.32;;;4.18;;
32323;SDS011;25666;44.350;9.222;2022-08-19T17:49:38;4.32;;;3.28;;
32323;SDS011;25666;44.350;9.222;2022-08-19T17:52:04;17.67;;;11.15;;
32323;SDS011;25666;44.350;9.222;2022-08-19T17:54:29;10.88;;;6.25;;
32323;SDS011;25666;44.350;9.222;2022-08-19T17:56:55;11.90;;;5.22;;
32323;SDS011;25666;44.350;9.222;2022-08-19T17:59:21;9.10;;;3.60;;
32323;SDS011;25666;44.350;9.222;2022-08-19T18:01:46;7.00;;;4.60;;
32323;SDS011;25666;44.350;9.222;2022-08-19T18:04:12;9.55;;;3.92;;
32323;SDS011;25666;44.350;9.222;2022-08-19T18:06:38;10.82;;;4.60;;
32323;SDS011;25666;44.350;9.222;2022-08-19T18:09:06;11.20;;;3.75;;
32323;SDS011;25666;44.350;9.222;2022-08-19T18:11:32;7.50;;;3.92;;
32323;SDS011;25666;44.350;9.222;2022-08-19T18:13:58;7.10;;;3.15;;
32323;SDS011;25666;44.350;9.222;2022-08-19T18:16:24;7.40;;;3.88;;
32323;SDS011;25666;44.350;9.222;2022-08-19T18:18:50;8.88;;;4.20;;
32323;SDS011;25666;44.350;9.222;2022-08-19T18:21:18;7.88;;;3.38;;
32323;SDS011;25666;44.350;9.222;2022-08-19T18:23:44;13.27;;;3.40;;
32323;SDS011;25666;44.350;9.222;2022-08-19T18:26:10;8.48;;;3.70;;
32323;SDS011;25666;44.350;9.222;2022-08-19T18:28:35;11.63;;;5.68;;
32323;SDS011;25666;44.350;9.222;2022-08-19T18:31:04;8.75;;;3.25;;
32323;SDS011;25666;44.350;9.222;2022-08-19T18:33:30;9.43;;;3.30;;
32323;SDS011;25666;44.350;9.222;2022-08-19T18:35:56;6.13;;;2.90;;
32323;SDS011;25666;44.350;9.222;2022-08-19T18:38:21;10.02;;;3.65;;
32323;SDS011;25666;44.350;9.222;2022-08-19T18:41:06;7.38;;;3.50;;
32323;SDS011;25666;44.350;9.222;2022-08-19T18:43:50;6.70;;;3.05;;
32323;SDS011;25666;44.350;9.222;2022-08-19T18:46:35;10.43;;;4.05;;
32323;SDS011;25666;44.350;9.222;2022-08-19T18:49:27;6.97;;;5.57;;
32323;SDS011;25666;44.350;9.222;2022-08-19T18:51:55;11.82;;;4.80;;
32323;SDS011;25666;44.350;9.222;2022-08-19T18:54:21;11.32;;;4.57;;
32323;SDS011;25666;44.350;9.222;2022-08-19T18:56:48;10.07;;;3.50;;
32323;SDS011;25666;44.350;9.222;2022-08-19T18:59:17;7.78;;;3.28;;
32323;SDS011;25666;44.350;9.222;2022-08-19T19:01:44;11.77;;;3.97;;
32323;SDS011;25666;44.350;9.222;2022-08-19T19:04:15;4.80;;;2.95;;
32323;SDS011;25666;44.350;9.222;2022-08-19T19:06:43;10.35;;;2.85;;
32323;SDS011;25666;44.350;9.222;2022-08-19T19:09:10;5.90;;;3.00;;
32323;SDS011;25666;44.350;9.222;2022-08-19T19:11:38;7.32;;;3.30;;
32323;SDS011;25666;44.350;9.222;2022-08-19T19:14:09;6.95;;;3.28;;
32323;SDS011;25666;44.350;9.222;2022-08-19T19:16:36;6.88;;;3.40;;
32323;SDS011;25666;44.350;9.222;2022-08-19T19:19:03;4.18;;;3.28;;
32323;SDS011;25666;44.350;9.222;2022-08-19T19:21:34;9.90;;;3.40;;
32323;SDS011;25666;44.350;9.222;2022-08-19T19:24:00;4.78;;;3.35;;
32323;SDS011;25666;44.350;9.222;2022-08-19T19:26:26;6.95;;;3.50;;
32323;SDS011;25666;44.350;9.222;2022-08-19T19:28:52;13.05;;;3.55;;
32323;SDS011;25666;44.350;9.222;2022-08-19T19:31:23;10.57;;;4.50;;
32323;SDS011;25666;44.350;9.222;2022-08-19T19:36:17;4.03;;;2.92;;
32323;SDS011;25666;44.350;9.222;2022-08-19T19:38:43;8.90;;;3.75;;
32323;SDS011;25666;44.350;9.222;2022-08-19T19:41:10;5.85;;;3.55;;
32323;SDS011;25666;44.350;9.222;2022-08-19T19:43:37;22.75;;;4.05;;
32323;SDS011;25666;44.350;9.222;2022-08-19T19:46:03;7.13;;;3.78;;
32323;SDS011;25666;44.350;9.222;2022-08-19T19:48:29;6.78;;;3.28;;
32323;SDS011;25666;44.350;9.222;2022-08-19T19:50:54;4.55;;;2.90;;
32323;SDS011;25666;44.350;9.222;2022-08-19T19:53:21;6.93;;;3.40;;
32323;SDS011;25666;44.350;9.222;2022-08-19T19:55:48;9.35;;;3.40;;
32323;SDS011;25666;44.350;9.222;2022-08-19T19:58:15;5.05;;;3.00;;
32323;SDS011;25666;44.350;9.222;2022-08-19T20:00:42;10.73;;;3.35;;
32323;SDS011;25666;44.350;9.222;2022-08-19T20:03:08;10.80;;;4.80;;
32323;SDS011;25666;44.350;9.222;2022-08-19T20:05:34;5.47;;;3.40;;
32323;SDS011;25666;44.350;9.222;2022-08-19T20:07:59;10.27;;;3.00;;
32323;SDS011;25666;44.350;9.222;2022-08-19T20:10:44;6.75;;;3.45;;
32323;SDS011;25666;44.350;9.222;2022-08-19T20:13:10;6.80;;;3.72;;
32323;SDS011;25666;44.350;9.222;2022-08-19T20:15:37;9.27;;;3.25;;
32323;SDS011;25666;44.350;9.222;2022-08-19T20:18:04;10.65;;;3.58;;
32323;SDS011;25666;44.350;9.222;2022-08-19T20:20:30;12.82;;;4.05;;
32323;SDS011;25666;44.350;9.222;2022-08-19T20:22:56;5.20;;;3.67;;
32323;SDS011;25666;44.350;9.222;2022-08-19T20:25:22;4.60;;;3.15;;
32323;SDS011;25666;44.350;9.222;2022-08-19T20:27:48;11.95;;;4.60;;
32323;SDS011;25666;44.350;9.222;2022-08-19T20:30:15;7.18;;;3.65;;
32323;SDS011;25666;44.350;9.222;2022-08-19T20:32:43;8.93;;;4.28;;
32323;SDS011;25666;44.350;9.222;2022-08-19T20:35:12;11.23;;;4.05;;
32323;SDS011;25666;44.350;9.222;2022-08-19T20:37:39;11.25;;;4.45;;
32323;SDS011;25666;44.350;9.222;2022-08-19T20:40:05;8.88;;;4.03;;
32323;SDS011;25666;44.350;9.222;2022-08-19T20:42:35;11.20;;;4.65;;
32323;SDS011;25666;44.350;9.222;2022-08-19T20:45:04;10.68;;;4.20;;
32323;SDS011;25666;44.350;9.222;2022-08-19T20:47:32;8.38;;;4.10;;
32323;SDS011;25666;44.350;9.222;2022-08-19T20:49:59;12.10;;;4.93;;
32323;SDS011;25666;44.350;9.222;2022-08-19T20:52:25;6.78;;;3.97;;
32323;SDS011;25666;44.350;9.222;2022-08-19T20:54:50;8.80;;;4.30;;
32323;SDS011;25666;44.350;9.222;2022-08-19T20:57:16;6.65;;;3.45;;